sensor_id;sensor_type;location;lat;lon;timestamp;temperature;humidity
3356;DHT22;1691;52.486;13.374;2024-03-23T00:54:51;9.60;98.70
3356;DHT22;1691;52.486;13.374;2024-03-23T00:57:17;9.60;98.70
3356;DHT22;1691;52.486;13.374;2024-03-23T00:59:43;9.60;98.70
3356;DHT22;1691;52.486;13.374;2024-03-23T01:02:09;9.60;98.70
3356;DHT22;1691;52.486;13.374;2024-03-23T01:04:35;9.60;98.70
3356;DHT22;1691;52.486;13.374;2024-03-23T01:07:01;9.60;98.70
3356;DHT22;1691;52.486;13.374;2024-03-23T01:09:27;9.70;98.70
3356;DHT22;1691;52.486;13.374;2024-03-23T01:11:53;9.70;98.70
3356;DHT22;1691;52.486;13.374;2024-03-23T01:14:19;9.70;98.70
3356;DHT22;1691;52.486;13.374;2024-03-23T01:16:46;9.70;98.70
3356;DHT22;1691;52.486;13.374;2024-03-23T01:19:12;9.70;98.70
3356;DHT22;1691;52.486;13.374;2024-03-23T01:21:38;9.70;98.70
3356;DHT22;1691;52.486;13.374;2024-03-23T01:24:04;9.70;98.70
3356;DHT22;1691;52.486;13.374;2024-03-23T01:26:30;9.70;98.70
3356;DHT22;1691;52.486;13.374;2024-03-23T01:28:56;9.70;98.70
3356;DHT22;1691;52.486;13.374;2024-03-23T01:31:22;9.70;98.70
3356;DHT22;1691;52.486;13.374;2024-03-23T01:33:48;9.70;98.70
3356;DHT22;1691;52.486;13.374;2024-03-23T01:36:14;9.70;98.70
3356;DHT22;1691;52.486;13.374;2024-03-23T01:38:40;9.70;98.70
3356;DHT22;1691;52.486;13.374;2024-03-23T01:41:06;9.60;98.70
3356;DHT22;1691;52.486;13.374;2024-03-23T01:43:32;9.60;98.70
3356;DHT22;1691;52.486;13.374;2024-03-23T01:45:58;9.60;98.70
3356;DHT22;1691;52.486;13.374;2024-03-23T01:48:24;9.60;98.70
3356;DHT22;1691;52.486;13.374;2024-03-23T01:50:50;9.60;98.70
3356;DHT22;1691;52.486;13.374;2024-03-23T01:53:16;9.60;98.70
3356;DHT22;1691;52.486;13.374;2024-03-23T01:55:48;9.60;98.70
3356;DHT22;1691;52.486;13.374;2024-03-23T01:58:15;9.60;98.70
3356;DHT22;1691;52.486;13.374;2024-03-23T02:00:41;9.60;98.70
3356;DHT22;1691;52.486;13.374;2024-03-23T02:03:24;9.60;98.70
3356;DHT22;1691;52.486;13.374;2024-03-23T02:05:51;9.60;98.70
3356;DHT22;1691;52.486;13.374;2024-03-23T02:08:20;9.60;98.70
3356;DHT22;1691;52.486;13.374;2024-03-23T02:10:48;9.60;98.70
3356;DHT22;1691;52.486;13.374;2024-03-23T02:13:15;9.70;98.70
3356;DHT22;1691;52.486;13.374;2024-03-23T02:15:42;9.70;98.70
3356;DHT22;1691;52.486;13.374;2024-03-23T02:18:08;9.70;98.70
3356;DHT22;1691;52.486;13.374;2024-03-23T02:20:35;9.70;98.70
3356;DHT22;1691;52.486;13.374;2024-03-23T02:23:02;9.70;98.70
3356;DHT22;1691;52.486;13.374;2024-03-23T02:25:29;9.70;98.70
3356;DHT22;1691;52.486;13.374;2024-03-23T02:27:55;9.70;98.70
3356;DHT22;1691;52.486;13.374;2024-03-23T02:30:21;9.70;98.70
3356;DHT22;1691;52.486;13.374;2024-03-23T02:32:47;9.70;98.70
3356;DHT22;1691;52.486;13.374;2024-03-23T02:35:13;9.60;98.70
3356;DHT22;1691;52.486;13.374;2024-03-23T02:37:39;9.60;98.70
3356;DHT22;1691;52.486;13.374;2024-03-23T02:40:06;9.60;98.70
3356;DHT22;1691;52.486;13.374;2024-03-23T02:42:32;9.60;98.70
3356;DHT22;1691;52.486;13.374;2024-03-23T02:44:58;9.60;98.70
3356;DHT22;1691;52.486;13.374;2024-03-23T02:47:25;9.50;98.70
3356;DHT22;1691;52.486;13.374;2024-03-23T02:49:51;9.50;98.70
3356;DHT22;1691;52.486;13.374;2024-03-23T02:52:17;9.50;98.70
3356;DHT22;1691;52.486;13.374;2024-03-23T02:54:43;9.50;98.70
3356;DHT22;1691;52.486;13.374;2024-03-23T02:57:11;9.50;98.70
3356;DHT22;1691;52.486;13.374;2024-03-23T02:59:37;9.40;98.70
3356;DHT22;1691;52.486;13.374;2024-03-23T03:02:04;9.40;98.70
3356;DHT22;1691;52.486;13.374;2024-03-23T03:04:31;9.40;98.70
3356;DHT22;1691;52.486;13.374;2024-03-23T03:06:57;9.40;98.70
3356;DHT22;1691;52.486;13.374;2024-03-23T03:09:23;9.40;98.70
3356;DHT22;1691;52.486;13.374;2024-03-23T03:11:49;9.40;98.70
3356;DHT22;1691;52.486;13.374;2024-03-23T03:14:15;9.40;98.70
3356;DHT22;1691;52.486;13.374;2024-03-23T03:16:41;9.40;98.70
3356;DHT22;1691;52.486;13.374;2024-03-23T03:19:07;9.40;98.70
3356;DHT22;1691;52.486;13.374;2024-03-23T03:21:33;9.40;98.70
3356;DHT22;1691;52.486;13.374;2024-03-23T03:23:59;9.40;98.70
3356;DHT22;1691;52.486;13.374;2024-03-23T03:26:25;9.40;98.70
3356;DHT22;1691;52.486;13.374;2024-03-23T03:28:52;9.40;98.70
3356;DHT22;1691;52.486;13.374;2024-03-23T03:31:18;9.30;98.70
3356;DHT22;1691;52.486;13.374;2024-03-23T03:33:44;9.30;98.70
3356;DHT22;1691;52.486;13.374;2024-03-23T03:36:10;9.20;98.70
3356;DHT22;1691;52.486;13.374;2024-03-23T03:38:37;9.20;98.70
3356;DHT22;1691;52.486;13.374;2024-03-23T03:41:04;9.10;98.70
3356;DHT22;1691;52.486;13.374;2024-03-23T03:43:32;9.10;98.70
3356;DHT22;1691;52.486;13.374;2024-03-23T03:45:59;9.00;98.70
3356;DHT22;1691;52.486;13.374;2024-03-23T03:48:26;9.00;98.70
3356;DHT22;1691;52.486;13.374;2024-03-23T03:50:53;9.00;98.70
3356;DHT22;1691;52.486;13.374;2024-03-23T03:53:19;8.90;98.70
3356;DHT22;1691;52.486;13.374;2024-03-23T03:55:45;8.90;98.70
3356;DHT22;1691;52.486;13.374;2024-03-23T03:58:11;8.90;98.70
3356;DHT22;1691;52.486;13.374;2024-03-23T04:00:37;8.90;98.70
3356;DHT22;1691;52.486;13.374;2024-03-23T04:03:04;8.80;98.70
3356;DHT22;1691;52.486;13.374;2024-03-23T04:05:30;8.80;98.70
3356;DHT22;1691;52.486;13.374;2024-03-23T04:07:56;8.80;98.70
3356;DHT22;1691;52.486;13.374;2024-03-23T04:10:22;8.80;98.70
3356;DHT22;1691;52.486;13.374;2024-03-23T04:12:48;8.80;98.70
3356;DHT22;1691;52.486;13.374;2024-03-23T04:15:14;8.70;98.70
3356;DHT22;1691;52.486;13.374;2024-03-23T04:17:40;8.70;98.70
3356;DHT22;1691;52.486;13.374;2024-03-23T04:20:09;8.70;98.70
3356;DHT22;1691;52.486;13.374;2024-03-23T04:22:37;8.70;98.70
3356;DHT22;1691;52.486;13.374;2024-03-23T04:25:04;8.70;98.70
3356;DHT22;1691;52.486;13.374;2024-03-23T04:27:36;8.70;98.70
3356;DHT22;1691;52.486;13.374;2024-03-23T04:30:06;8.70;98.70
3356;DHT22;1691;52.486;13.374;2024-03-23T04:32:40;8.60;98.70
3356;DHT22;1691;52.486;13.374;2024-03-23T04:35:06;8.60;98.70
3356;DHT22;1691;52.486;13.374;2024-03-23T04:37:35;8.50;98.70
3356;DHT22;1691;52.486;13.374;2024-03-23T04:40:03;8.50;98.70
3356;DHT22;1691;52.486;13.374;2024-03-23T04:42:30;8.40;98.70
3356;DHT22;1691;52.486;13.374;2024-03-23T04:44:57;8.40;98.70
3356;DHT22;1691;52.486;13.374;2024-03-23T04:47:23;8.40;98.70
3356;DHT22;1691;52.486;13.374;2024-03-23T04:49:49;8.40;98.70
3356;DHT22;1691;52.486;13.374;2024-03-23T04:52:16;8.30;98.70
3356;DHT22;1691;52.486;13.374;2024-03-23T04:54:42;8.20;98.70
3356;DHT22;1691;52.486;13.374;2024-03-23T04:57:08;8.20;98.70
3356;DHT22;1691;52.486;13.374;2024-03-23T04:59:34;8.20;98.70
3356;DHT22;1691;52.486;13.374;2024-03-23T05:02:00;8.20;98.70
3356;DHT22;1691;52.486;13.374;2024-03-23T05:04:27;8.20;98.70
3356;DHT22;1691;52.486;13.374;2024-03-23T05:06:53;8.20;98.70
3356;DHT22;1691;52.486;13.374;2024-03-23T05:09:19;8.10;98.70
3356;DHT22;1691;52.486;13.374;2024-03-23T05:11:45;8.20;98.70
3356;DHT22;1691;52.486;13.374;2024-03-23T05:14:15;8.20;98.70
3356;DHT22;1691;52.486;13.374;2024-03-23T05:16:41;8.20;98.70
3356;DHT22;1691;52.486;13.374;2024-03-23T05:19:07;8.20;98.70
3356;DHT22;1691;52.486;13.374;2024-03-23T05:21:33;8.20;98.70
3356;DHT22;1691;52.486;13.374;2024-03-23T05:23:59;8.30;98.70
3356;DHT22;1691;52.486;13.374;2024-03-23T05:26:25;8.20;98.70
3356;DHT22;1691;52.486;13.374;2024-03-23T05:28:51;8.20;98.70
3356;DHT22;1691;52.486;13.374;2024-03-23T05:31:24;8.20;98.70
3356;DHT22;1691;52.486;13.374;2024-03-23T05:33:51;8.20;98.70
3356;DHT22;1691;52.486;13.374;2024-03-23T05:36:18;8.20;98.70
3356;DHT22;1691;52.486;13.374;2024-03-23T05:38:44;8.20;98.70
3356;DHT22;1691;52.486;13.374;2024-03-23T05:41:10;8.10;98.70
3356;DHT22;1691;52.486;13.374;2024-03-23T05:43:36;8.10;98.70
3356;DHT22;1691;52.486;13.374;2024-03-23T05:46:03;8.10;98.70
3356;DHT22;1691;52.486;13.374;2024-03-23T05:48:31;8.10;98.70
3356;DHT22;1691;52.486;13.374;2024-03-23T05:50:57;8.10;98.70
3356;DHT22;1691;52.486;13.374;2024-03-23T05:53:24;8.10;98.70
3356;DHT22;1691;52.486;13.374;2024-03-23T05:55:51;8.10;98.70
3356;DHT22;1691;52.486;13.374;2024-03-23T05:58:19;8.20;98.70
3356;DHT22;1691;52.486;13.374;2024-03-23T06:00:48;8.20;98.70
3356;DHT22;1691;52.486;13.374;2024-03-23T06:03:14;8.10;98.70
3356;DHT22;1691;52.486;13.374;2024-03-23T06:05:40;8.10;98.70
3356;DHT22;1691;52.486;13.374;2024-03-23T06:08:08;8.20;98.70
3356;DHT22;1691;52.486;13.374;2024-03-23T06:10:35;8.20;98.70
3356;DHT22;1691;52.486;13.374;2024-03-23T06:13:01;8.20;98.70
3356;DHT22;1691;52.486;13.374;2024-03-23T06:15:27;8.20;98.70
3356;DHT22;1691;52.486;13.374;2024-03-23T06:17:53;8.30;98.70
3356;DHT22;1691;52.486;13.374;2024-03-23T06:20:19;8.30;98.70
3356;DHT22;1691;52.486;13.374;2024-03-23T06:22:45;8.40;98.70
3356;DHT22;1691;52.486;13.374;2024-03-23T06:25:11;8.40;98.70
3356;DHT22;1691;52.486;13.374;2024-03-23T06:27:38;8.40;98.70
3356;DHT22;1691;52.486;13.374;2024-03-23T06:30:05;8.40;98.70
3356;DHT22;1691;52.486;13.374;2024-03-23T06:32:32;8.40;98.70
3356;DHT22;1691;52.486;13.374;2024-03-23T06:34:58;8.30;98.70
3356;DHT22;1691;52.486;13.374;2024-03-23T06:37:24;8.30;98.70
3356;DHT22;1691;52.486;13.374;2024-03-23T06:39:50;8.30;98.70
3356;DHT22;1691;52.486;13.374;2024-03-23T06:42:16;8.30;98.70
3356;DHT22;1691;52.486;13.374;2024-03-23T06:44:43;8.30;98.70
3356;DHT22;1691;52.486;13.374;2024-03-23T06:47:09;8.20;98.70
3356;DHT22;1691;52.486;13.374;2024-03-23T06:49:35;8.20;98.70
3356;DHT22;1691;52.486;13.374;2024-03-23T06:52:01;8.20;98.70
3356;DHT22;1691;52.486;13.374;2024-03-23T06:54:28;8.20;98.70
3356;DHT22;1691;52.486;13.374;2024-03-23T06:56:54;8.30;98.70
3356;DHT22;1691;52.486;13.374;2024-03-23T06:59:20;8.30;98.70
3356;DHT22;1691;52.486;13.374;2024-03-23T07:01:46;8.30;98.70
3356;DHT22;1691;52.486;13.374;2024-03-23T07:04:12;8.30;98.70
3356;DHT22;1691;52.486;13.374;2024-03-23T07:06:45;8.30;98.70
3356;DHT22;1691;52.486;13.374;2024-03-23T07:09:11;8.40;98.70
3356;DHT22;1691;52.486;13.374;2024-03-23T07:11:38;8.40;98.70
3356;DHT22;1691;52.486;13.374;2024-03-23T07:14:04;8.50;98.70
3356;DHT22;1691;52.486;13.374;2024-03-23T07:16:30;8.50;98.70
3356;DHT22;1691;52.486;13.374;2024-03-23T07:18:57;8.50;98.70
3356;DHT22;1691;52.486;13.374;2024-03-23T07:21:23;8.50;98.70
3356;DHT22;1691;52.486;13.374;2024-03-23T07:23:49;8.50;98.70
3356;DHT22;1691;52.486;13.374;2024-03-23T07:26:15;8.50;98.70
3356;DHT22;1691;52.486;13.374;2024-03-23T07:28:41;8.50;98.70
3356;DHT22;1691;52.486;13.374;2024-03-23T07:31:11;8.50;98.70
3356;DHT22;1691;52.486;13.374;2024-03-23T07:33:45;8.50;98.70
3356;DHT22;1691;52.486;13.374;2024-03-23T07:36:11;8.60;98.70
3356;DHT22;1691;52.486;13.374;2024-03-23T07:38:41;8.70;98.70
3356;DHT22;1691;52.486;13.374;2024-03-23T07:41:13;8.70;98.70
3356;DHT22;1691;52.486;13.374;2024-03-23T07:43:43;8.80;98.70
3356;DHT22;1691;52.486;13.374;2024-03-23T07:46:09;8.80;98.70
3356;DHT22;1691;52.486;13.374;2024-03-23T07:48:35;8.80;98.70
3356;DHT22;1691;52.486;13.374;2024-03-23T07:51:07;8.90;98.70
3356;DHT22;1691;52.486;13.374;2024-03-23T07:53:35;8.90;98.70
3356;DHT22;1691;52.486;13.374;2024-03-23T07:56:09;8.90;98.70
3356;DHT22;1691;52.486;13.374;2024-03-23T07:58:38;8.90;98.70
3356;DHT22;1691;52.486;13.374;2024-03-23T08:01:06;8.90;98.70
3356;DHT22;1691;52.486;13.374;2024-03-23T08:03:39;8.90;98.70
3356;DHT22;1691;52.486;13.374;2024-03-23T08:08:39;8.90;98.70
3356;DHT22;1691;52.486;13.374;2024-03-23T08:11:06;8.80;98.70
3356;DHT22;1691;52.486;13.374;2024-03-23T08:13:34;8.80;98.70
3356;DHT22;1691;52.486;13.374;2024-03-23T08:16:01;8.80;98.70
3356;DHT22;1691;52.486;13.374;2024-03-23T08:18:29;8.80;98.70
3356;DHT22;1691;52.486;13.374;2024-03-23T08:20:59;8.70;98.70
3356;DHT22;1691;52.486;13.374;2024-03-23T08:23:27;8.70;98.70
3356;DHT22;1691;52.486;13.374;2024-03-23T08:25:58;8.60;98.70
3356;DHT22;1691;52.486;13.374;2024-03-23T08:28:25;8.50;98.70
3356;DHT22;1691;52.486;13.374;2024-03-23T08:30:52;8.30;98.70
3356;DHT22;1691;52.486;13.374;2024-03-23T08:33:19;8.10;98.70
3356;DHT22;1691;52.486;13.374;2024-03-23T08:36:00;8.00;98.70
3356;DHT22;1691;52.486;13.374;2024-03-23T08:38:30;8.00;98.70
3356;DHT22;1691;52.486;13.374;2024-03-23T08:41:01;7.90;98.70
3356;DHT22;1691;52.486;13.374;2024-03-23T08:43:29;7.90;98.70
3356;DHT22;1691;52.486;13.374;2024-03-23T08:48:42;7.80;98.70
3356;DHT22;1691;52.486;13.374;2024-03-23T08:51:10;7.80;98.70
3356;DHT22;1691;52.486;13.374;2024-03-23T08:53:37;7.70;98.70
3356;DHT22;1691;52.486;13.374;2024-03-23T08:56:05;7.70;98.70
3356;DHT22;1691;52.486;13.374;2024-03-23T08:58:32;7.60;98.70
3356;DHT22;1691;52.486;13.374;2024-03-23T09:01:10;7.60;98.70
3356;DHT22;1691;52.486;13.374;2024-03-23T09:03:37;7.60;98.70
3356;DHT22;1691;52.486;13.374;2024-03-23T09:06:07;7.60;98.70
3356;DHT22;1691;52.486;13.374;2024-03-23T09:08:35;7.50;98.70
3356;DHT22;1691;52.486;13.374;2024-03-23T09:11:10;7.50;98.70
3356;DHT22;1691;52.486;13.374;2024-03-23T09:13:37;7.50;98.70
3356;DHT22;1691;52.486;13.374;2024-03-23T09:16:05;7.40;98.70
3356;DHT22;1691;52.486;13.374;2024-03-23T09:18:36;7.30;98.70
3356;DHT22;1691;52.486;13.374;2024-03-23T09:21:03;7.30;98.70
3356;DHT22;1691;52.486;13.374;2024-03-23T09:23:30;7.30;98.70
3356;DHT22;1691;52.486;13.374;2024-03-23T09:25:56;7.20;98.70
3356;DHT22;1691;52.486;13.374;2024-03-23T09:28:22;7.20;98.70
3356;DHT22;1691;52.486;13.374;2024-03-23T09:30:48;7.20;98.70
3356;DHT22;1691;52.486;13.374;2024-03-23T09:33:14;7.10;98.70
3356;DHT22;1691;52.486;13.374;2024-03-23T09:35:41;7.10;98.70
3356;DHT22;1691;52.486;13.374;2024-03-23T09:38:09;7.10;98.70
3356;DHT22;1691;52.486;13.374;2024-03-23T09:40:41;7.00;98.70
3356;DHT22;1691;52.486;13.374;2024-03-23T09:43:11;6.90;98.70
3356;DHT22;1691;52.486;13.374;2024-03-23T09:45:40;6.90;98.70
3356;DHT22;1691;52.486;13.374;2024-03-23T09:48:08;6.90;98.70
3356;DHT22;1691;52.486;13.374;2024-03-23T09:50:43;6.90;98.70
3356;DHT22;1691;52.486;13.374;2024-03-23T09:53:12;7.00;98.70
3356;DHT22;1691;52.486;13.374;2024-03-23T09:55:41;7.00;98.70
3356;DHT22;1691;52.486;13.374;2024-03-23T09:58:07;7.00;98.70
3356;DHT22;1691;52.486;13.374;2024-03-23T10:00:35;7.00;98.70
3356;DHT22;1691;52.486;13.374;2024-03-23T10:03:01;6.90;98.70
3356;DHT22;1691;52.486;13.374;2024-03-23T10:05:28;7.00;98.70
3356;DHT22;1691;52.486;13.374;2024-03-23T10:07:55;6.90;98.70
3356;DHT22;1691;52.486;13.374;2024-03-23T10:10:21;6.90;98.70
3356;DHT22;1691;52.486;13.374;2024-03-23T10:12:49;6.90;98.70
3356;DHT22;1691;52.486;13.374;2024-03-23T10:15:20;7.00;98.70
3356;DHT22;1691;52.486;13.374;2024-03-23T10:17:50;7.00;98.70
3356;DHT22;1691;52.486;13.374;2024-03-23T10:20:21;7.00;98.70
3356;DHT22;1691;52.486;13.374;2024-03-23T10:22:51;7.00;98.70
3356;DHT22;1691;52.486;13.374;2024-03-23T10:25:18;7.00;98.70
3356;DHT22;1691;52.486;13.374;2024-03-23T10:28:01;6.90;98.70
3356;DHT22;1691;52.486;13.374;2024-03-23T10:30:27;6.90;98.70
3356;DHT22;1691;52.486;13.374;2024-03-23T10:33:11;6.80;98.70
3356;DHT22;1691;52.486;13.374;2024-03-23T10:35:39;6.80;98.70
3356;DHT22;1691;52.486;13.374;2024-03-23T10:38:06;6.90;98.70
3356;DHT22;1691;52.486;13.374;2024-03-23T10:40:36;6.90;98.70
3356;DHT22;1691;52.486;13.374;2024-03-23T10:43:03;7.00;98.70
3356;DHT22;1691;52.486;13.374;2024-03-23T10:45:30;7.00;98.70
3356;DHT22;1691;52.486;13.374;2024-03-23T10:47:57;7.10;98.70
3356;DHT22;1691;52.486;13.374;2024-03-23T10:50:23;7.10;98.70
3356;DHT22;1691;52.486;13.374;2024-03-23T10:52:49;7.10;98.70
3356;DHT22;1691;52.486;13.374;2024-03-23T10:55:19;7.20;98.70
3356;DHT22;1691;52.486;13.374;2024-03-23T10:57:52;7.20;98.70
3356;DHT22;1691;52.486;13.374;2024-03-23T11:00:20;7.30;98.70
3356;DHT22;1691;52.486;13.374;2024-03-23T11:02:49;7.30;98.70
3356;DHT22;1691;52.486;13.374;2024-03-23T11:07:51;7.40;98.70
3356;DHT22;1691;52.486;13.374;2024-03-23T11:10:28;7.30;98.70
3356;DHT22;1691;52.486;13.374;2024-03-23T11:13:21;7.40;98.70
3356;DHT22;1691;52.486;13.374;2024-03-23T11:15:48;7.50;98.70
3356;DHT22;1691;52.486;13.374;2024-03-23T11:18:20;7.60;98.70
3356;DHT22;1691;52.486;13.374;2024-03-23T11:20:46;7.60;98.70
3356;DHT22;1691;52.486;13.374;2024-03-23T11:23:28;7.70;98.70
3356;DHT22;1691;52.486;13.374;2024-03-23T11:25:55;7.80;98.70
3356;DHT22;1691;52.486;13.374;2024-03-23T11:28:20;7.90;98.70
3356;DHT22;1691;52.486;13.374;2024-03-23T11:30:47;8.00;98.70
3356;DHT22;1691;52.486;13.374;2024-03-23T11:33:14;8.20;98.70
3356;DHT22;1691;52.486;13.374;2024-03-23T11:35:41;8.30;98.70
3356;DHT22;1691;52.486;13.374;2024-03-23T11:38:13;8.40;98.70
3356;DHT22;1691;52.486;13.374;2024-03-23T11:40:42;8.50;98.70
3356;DHT22;1691;52.486;13.374;2024-03-23T11:43:10;8.60;98.70
3356;DHT22;1691;52.486;13.374;2024-03-23T11:45:48;8.70;98.70
3356;DHT22;1691;52.486;13.374;2024-03-23T11:48:23;8.80;98.70
3356;DHT22;1691;52.486;13.374;2024-03-23T11:50:58;9.00;98.70
3356;DHT22;1691;52.486;13.374;2024-03-23T11:53:25;9.10;98.70
3356;DHT22;1691;52.486;13.374;2024-03-23T11:55:58;9.20;98.70
3356;DHT22;1691;52.486;13.374;2024-03-23T11:58:27;9.30;98.70
3356;DHT22;1691;52.486;13.374;2024-03-23T12:00:57;9.40;98.70
3356;DHT22;1691;52.486;13.374;2024-03-23T12:03:25;9.40;98.70
3356;DHT22;1691;52.486;13.374;2024-03-23T12:05:54;9.40;98.70
3356;DHT22;1691;52.486;13.374;2024-03-23T12:08:21;9.40;98.70
3356;DHT22;1691;52.486;13.374;2024-03-23T12:10:51;9.40;98.70
3356;DHT22;1691;52.486;13.374;2024-03-23T12:13:20;9.30;98.70
3356;DHT22;1691;52.486;13.374;2024-03-23T12:15:49;9.30;98.70
3356;DHT22;1691;52.486;13.374;2024-03-23T12:18:17;9.20;98.70
3356;DHT22;1691;52.486;13.374;2024-03-23T12:20:44;9.00;98.70
3356;DHT22;1691;52.486;13.374;2024-03-23T12:23:11;9.00;98.70
3356;DHT22;1691;52.486;13.374;2024-03-23T12:25:41;8.90;98.70
3356;DHT22;1691;52.486;13.374;2024-03-23T12:28:07;8.90;98.70
3356;DHT22;1691;52.486;13.374;2024-03-23T12:30:40;9.00;98.70
3356;DHT22;1691;52.486;13.374;2024-03-23T12:33:06;9.00;98.70
3356;DHT22;1691;52.486;13.374;2024-03-23T12:35:32;9.10;98.70
3356;DHT22;1691;52.486;13.374;2024-03-23T12:37:58;9.20;98.70
3356;DHT22;1691;52.486;13.374;2024-03-23T12:40:24;9.30;98.70
3356;DHT22;1691;52.486;13.374;2024-03-23T12:42:51;9.40;98.70
3356;DHT22;1691;52.486;13.374;2024-03-23T12:45:17;9.40;98.70
3356;DHT22;1691;52.486;13.374;2024-03-23T12:47:43;9.40;98.70
3356;DHT22;1691;52.486;13.374;2024-03-23T12:50:09;9.30;98.70
3356;DHT22;1691;52.486;13.374;2024-03-23T12:52:36;9.30;98.70
3356;DHT22;1691;52.486;13.374;2024-03-23T12:55:04;9.20;98.60
3356;DHT22;1691;52.486;13.374;2024-03-23T12:57:32;9.10;98.60
3356;DHT22;1691;52.486;13.374;2024-03-23T12:59:59;9.10;98.60
3356;DHT22;1691;52.486;13.374;2024-03-23T13:02:26;9.10;98.70
3356;DHT22;1691;52.486;13.374;2024-03-23T13:04:53;9.20;98.70
3356;DHT22;1691;52.486;13.374;2024-03-23T13:07:20;9.30;98.70
3356;DHT22;1691;52.486;13.374;2024-03-23T13:09:49;9.40;98.70
3356;DHT22;1691;52.486;13.374;2024-03-23T13:12:16;9.60;98.50
3356;DHT22;1691;52.486;13.374;2024-03-23T13:14:45;9.70;98.30
3356;DHT22;1691;52.486;13.374;2024-03-23T13:17:11;9.80;98.20
3356;DHT22;1691;52.486;13.374;2024-03-23T13:19:37;10.00;98.00
3356;DHT22;1691;52.486;13.374;2024-03-23T13:22:04;10.20;97.80
3356;DHT22;1691;52.486;13.374;2024-03-23T13:24:30;10.30;97.70
3356;DHT22;1691;52.486;13.374;2024-03-23T13:26:57;10.50;97.60
3356;DHT22;1691;52.486;13.374;2024-03-23T13:29:24;10.70;97.30
3356;DHT22;1691;52.486;13.374;2024-03-23T13:31:51;10.80;96.90
3356;DHT22;1691;52.486;13.374;2024-03-23T13:34:18;11.00;96.50
3356;DHT22;1691;52.486;13.374;2024-03-23T13:36:45;11.00;96.00
3356;DHT22;1691;52.486;13.374;2024-03-23T13:39:11;10.90;95.70
3356;DHT22;1691;52.486;13.374;2024-03-23T13:41:44;10.90;95.40
3356;DHT22;1691;52.486;13.374;2024-03-23T13:44:14;10.80;95.10
3356;DHT22;1691;52.486;13.374;2024-03-23T13:46:41;10.60;94.80
3356;DHT22;1691;52.486;13.374;2024-03-23T13:49:29;10.50;94.70
3356;DHT22;1691;52.486;13.374;2024-03-23T13:51:57;10.40;94.60
3356;DHT22;1691;52.486;13.374;2024-03-23T13:54:27;10.30;94.70
3356;DHT22;1691;52.486;13.374;2024-03-23T13:56:54;10.30;94.70
3356;DHT22;1691;52.486;13.374;2024-03-23T13:59:21;10.30;94.60
3356;DHT22;1691;52.486;13.374;2024-03-23T14:01:51;10.40;94.50
3356;DHT22;1691;52.486;13.374;2024-03-23T14:04:17;10.40;94.40
3356;DHT22;1691;52.486;13.374;2024-03-23T14:06:46;10.40;94.20
3356;DHT22;1691;52.486;13.374;2024-03-23T14:09:12;10.40;94.20
3356;DHT22;1691;52.486;13.374;2024-03-23T14:11:40;10.40;94.20
3356;DHT22;1691;52.486;13.374;2024-03-23T14:14:09;10.50;94.00
3356;DHT22;1691;52.486;13.374;2024-03-23T14:16:35;10.50;93.90
3356;DHT22;1691;52.486;13.374;2024-03-23T14:19:01;10.60;93.90
3356;DHT22;1691;52.486;13.374;2024-03-23T14:21:27;10.60;93.80
3356;DHT22;1691;52.486;13.374;2024-03-23T14:23:53;10.60;93.60
3356;DHT22;1691;52.486;13.374;2024-03-23T14:26:20;10.60;93.40
3356;DHT22;1691;52.486;13.374;2024-03-23T14:28:47;10.50;93.20
3356;DHT22;1691;52.486;13.374;2024-03-23T14:31:13;10.40;93.10
3356;DHT22;1691;52.486;13.374;2024-03-23T14:33:40;10.40;93.00
3356;DHT22;1691;52.486;13.374;2024-03-23T14:36:14;10.30;93.00
3356;DHT22;1691;52.486;13.374;2024-03-23T14:38:40;10.30;93.10
3356;DHT22;1691;52.486;13.374;2024-03-23T14:41:06;10.30;93.20
3356;DHT22;1691;52.486;13.374;2024-03-23T14:43:32;10.30;93.30
3356;DHT22;1691;52.486;13.374;2024-03-23T14:46:12;10.20;93.10
3356;DHT22;1691;52.486;13.374;2024-03-23T14:48:39;10.10;92.80
3356;DHT22;1691;52.486;13.374;2024-03-23T14:51:06;10.00;93.00
3356;DHT22;1691;52.486;13.374;2024-03-23T14:53:38;9.80;93.00
3356;DHT22;1691;52.486;13.374;2024-03-23T14:56:06;9.70;93.00
3356;DHT22;1691;52.486;13.374;2024-03-23T14:58:33;9.40;93.00
3356;DHT22;1691;52.486;13.374;2024-03-23T15:01:06;9.10;93.30
3356;DHT22;1691;52.486;13.374;2024-03-23T15:03:36;8.80;93.80
3356;DHT22;1691;52.486;13.374;2024-03-23T15:06:04;8.60;94.50
3356;DHT22;1691;52.486;13.374;2024-03-23T15:08:31;8.50;95.00
3356;DHT22;1691;52.486;13.374;2024-03-23T15:11:00;8.60;95.40
3356;DHT22;1691;52.486;13.374;2024-03-23T15:13:34;8.60;95.60
3356;DHT22;1691;52.486;13.374;2024-03-23T15:16:00;8.70;95.80
3356;DHT22;1691;52.486;13.374;2024-03-23T15:18:32;8.80;96.00
3356;DHT22;1691;52.486;13.374;2024-03-23T15:21:00;9.00;96.10
3356;DHT22;1691;52.486;13.374;2024-03-23T15:23:31;9.20;95.90
3356;DHT22;1691;52.486;13.374;2024-03-23T15:25:59;9.20;95.60
3356;DHT22;1691;52.486;13.374;2024-03-23T15:28:27;9.20;95.50
3356;DHT22;1691;52.486;13.374;2024-03-23T15:31:08;9.10;95.40
3356;DHT22;1691;52.486;13.374;2024-03-23T15:33:35;9.10;95.30
3356;DHT22;1691;52.486;13.374;2024-03-23T15:36:03;9.00;95.30
3356;DHT22;1691;52.486;13.374;2024-03-23T15:38:31;8.90;95.10
3356;DHT22;1691;52.486;13.374;2024-03-23T15:40:58;8.70;95.30
3356;DHT22;1691;52.486;13.374;2024-03-23T15:43:24;8.60;95.50
3356;DHT22;1691;52.486;13.374;2024-03-23T15:46:00;8.60;95.50
3356;DHT22;1691;52.486;13.374;2024-03-23T15:48:28;8.60;95.70
3356;DHT22;1691;52.486;13.374;2024-03-23T15:51:13;8.60;95.70
3356;DHT22;1691;52.486;13.374;2024-03-23T15:53:40;8.60;95.80
3356;DHT22;1691;52.486;13.374;2024-03-23T15:56:06;8.60;95.90
3356;DHT22;1691;52.486;13.374;2024-03-23T15:58:33;8.60;95.80
3356;DHT22;1691;52.486;13.374;2024-03-23T16:01:04;8.60;95.80
3356;DHT22;1691;52.486;13.374;2024-03-23T16:03:37;8.60;95.70
3356;DHT22;1691;52.486;13.374;2024-03-23T16:06:05;8.60;95.70
3356;DHT22;1691;52.486;13.374;2024-03-23T16:08:35;8.50;95.60
3356;DHT22;1691;52.486;13.374;2024-03-23T16:11:02;8.50;95.50
3356;DHT22;1691;52.486;13.374;2024-03-23T16:13:29;8.50;95.50
3356;DHT22;1691;52.486;13.374;2024-03-23T19:19:00;5.90;98.70
3356;DHT22;1691;52.486;13.374;2024-03-23T19:21:26;5.90;98.70
3356;DHT22;1691;52.486;13.374;2024-03-23T19:23:52;5.90;98.70
3356;DHT22;1691;52.486;13.374;2024-03-23T19:26:19;5.90;98.70
3356;DHT22;1691;52.486;13.374;2024-03-23T19:28:45;5.90;98.70
3356;DHT22;1691;52.486;13.374;2024-03-23T19:31:14;6.00;98.70
3356;DHT22;1691;52.486;13.374;2024-03-23T19:33:42;6.00;98.70
3356;DHT22;1691;52.486;13.374;2024-03-23T19:36:08;6.00;98.70
3356;DHT22;1691;52.486;13.374;2024-03-23T19:38:34;6.00;98.70
3356;DHT22;1691;52.486;13.374;2024-03-23T19:41:00;6.00;98.70
3356;DHT22;1691;52.486;13.374;2024-03-23T19:43:26;6.10;98.70
3356;DHT22;1691;52.486;13.374;2024-03-23T19:45:54;6.00;98.70
3356;DHT22;1691;52.486;13.374;2024-03-23T19:48:21;6.00;98.70
3356;DHT22;1691;52.486;13.374;2024-03-23T19:50:57;6.00;98.70
3356;DHT22;1691;52.486;13.374;2024-03-23T19:53:24;6.00;98.70
3356;DHT22;1691;52.486;13.374;2024-03-23T19:55:57;5.90;98.70
3356;DHT22;1691;52.486;13.374;2024-03-23T19:58:25;5.80;98.70
3356;DHT22;1691;52.486;13.374;2024-03-23T20:00:52;5.70;98.70
3356;DHT22;1691;52.486;13.374;2024-03-23T20:03:18;5.60;98.70
3356;DHT22;1691;52.486;13.374;2024-03-23T20:05:44;5.50;98.70
3356;DHT22;1691;52.486;13.374;2024-03-23T20:08:11;5.40;98.70